createdAt,value
2022-09-06T00:02:05.421Z,64.09
2022-09-06T00:04:48.141Z,64.71
2022-09-06T00:07:37.413Z,64.64
2022-09-06T00:10:21.129Z,64.60
2022-09-06T00:13:12.450Z,65.10
2022-09-06T00:15:55.074Z,65.35
2022-09-06T00:18:50.167Z,65.01
2022-09-06T00:21:39.458Z,65.35
2022-09-06T00:24:22.121Z,65.75
2022-09-06T00:27:11.422Z,65.49
2022-09-06T00:29:54.048Z,65.42
2022-09-06T00:32:36.296Z,65.52
2022-09-06T00:35:25.087Z,65.13
2022-09-06T00:38:08.713Z,65.32
2022-09-06T00:40:58.209Z,65.59
2022-09-06T00:43:47.414Z,65.91
2022-09-06T00:46:36.111Z,65.84
2022-09-06T00:49:26.457Z,65.93
2022-09-06T00:52:21.030Z,65.80
2022-09-06T00:55:10.442Z,66.29
2022-09-06T00:57:54.051Z,66.33
2022-09-06T01:00:36.402Z,66.25
2022-09-06T01:03:27.099Z,65.94
2022-09-06T01:06:42.472Z,66.18
2022-09-06T01:10:01.146Z,65.59
2022-09-06T01:13:35.042Z,65.60
2022-09-06T01:16:42.128Z,65.64
2022-09-06T01:20:16.454Z,65.82
2022-09-06T01:23:20.895Z,65.76
2022-09-06T01:26:52.471Z,65.63
2022-09-06T01:29:59.025Z,65.85
2022-09-06T01:32:48.043Z,65.80
2022-09-06T01:35:57.126Z,65.96
2022-09-06T01:38:46.204Z,65.94
2022-09-06T01:41:28.522Z,65.38
2022-09-06T01:44:17.216Z,65.93
2022-09-06T01:47:13.495Z,65.68
2022-09-06T01:50:33.166Z,66.13
2022-09-06T01:53:44.530Z,65.76
2022-09-06T01:57:10.125Z,66.15
2022-09-06T02:00:13.595Z,65.56
2022-09-06T02:03:24.316Z,65.67
2022-09-06T02:06:35.123Z,65.44
2022-09-06T02:09:31.412Z,64.98
2022-09-06T02:12:23.153Z,64.88
2022-09-06T02:15:20.851Z,64.33
2022-09-06T02:18:27.209Z,64.24
2022-09-06T02:21:16.376Z,63.83
2022-09-06T02:24:08.222Z,64.08
2022-09-06T02:26:51.573Z,63.73
2022-09-06T02:29:40.230Z,62.81
2022-09-06T02:32:25.708Z,63.09
2022-09-06T02:35:24.761Z,63.64
2022-09-06T02:38:14.220Z,63.24
2022-09-06T02:41:01.015Z,62.56
2022-09-06T02:43:52.148Z,62.88
2022-09-06T02:46:41.201Z,62.67
2022-09-06T02:49:32.149Z,61.95
2022-09-06T02:52:15.619Z,62.35
2022-09-06T02:55:05.146Z,61.58
2022-09-06T02:57:48.311Z,61.08
2022-09-06T03:00:39.209Z,60.90
2022-09-06T03:03:30.233Z,60.44
2022-09-06T03:06:22.176Z,59.58
2022-09-06T03:09:14.395Z,59.80
2022-09-06T03:11:58.846Z,59.47
2022-09-06T03:14:53.025Z,58.53
2022-09-06T03:17:51.842Z,59.92
2022-09-06T03:20:49.187Z,58.31
2022-09-06T03:23:41.867Z,58.30
2022-09-06T03:26:27.222Z,57.60
2022-09-06T03:29:23.114Z,56.75
2022-09-06T03:32:12.521Z,57.62
2022-09-06T03:34:55.241Z,57.56
2022-09-06T03:37:39.187Z,56.99
2022-09-06T03:40:28.262Z,56.88
2022-09-06T03:43:17.221Z,56.63
2022-09-06T03:46:01.599Z,56.95
2022-09-06T03:48:51.250Z,57.42
2022-09-06T03:51:34.934Z,56.08
2022-09-06T03:54:26.253Z,55.11
2022-09-06T03:57:10.636Z,54.53
2022-09-06T04:00:00.128Z,55.65
2022-09-06T04:02:50.764Z,55.40
2022-09-06T04:05:41.152Z,54.96
2022-09-06T04:08:24.515Z,56.22
2022-09-06T04:11:21.789Z,54.96
2022-09-06T04:14:14.305Z,55.47
2022-09-06T04:16:58.076Z,53.02
2022-09-06T04:19:49.306Z,52.78
2022-09-06T04:22:45.985Z,52.18
2022-09-06T04:25:29.089Z,52.05
2022-09-06T04:28:23.169Z,52.54
2022-09-06T04:31:06.624Z,51.82
2022-09-06T04:33:58.144Z,51.44
2022-09-06T04:36:48.439Z,50.96
2022-09-06T04:39:39.233Z,52.73
2022-09-06T04:42:23.241Z,50.47
2022-09-06T04:45:13.207Z,50.70
2022-09-06T04:48:04.314Z,50.84
2022-09-06T04:50:47.195Z,50.37
2022-09-06T04:53:36.920Z,50.22
2022-09-06T04:56:42.267Z,49.99
2022-09-06T04:59:33.617Z,49.43
2022-09-06T05:02:17.373Z,49.81
2022-09-06T05:05:06.163Z,48.44
2022-09-06T05:07:51.627Z,49.24
2022-09-06T05:10:45.076Z,48.86
2022-09-06T05:13:27.623Z,49.80
2022-09-06T05:16:18.162Z,48.91
2022-09-06T05:19:00.580Z,49.56
2022-09-06T05:21:51.055Z,49.34
2022-09-06T05:24:51.086Z,48.93
2022-09-06T05:27:44.204Z,48.08
2022-09-06T05:30:26.504Z,49.41
2022-09-06T05:33:17.217Z,49.87
2022-09-06T05:36:00.362Z,50.18
2022-09-06T05:38:50.225Z,49.26
2022-09-06T05:41:42.751Z,49.85
2022-09-06T05:44:35.233Z,48.17
2022-09-06T05:47:24.155Z,48.98
2022-09-06T05:50:10.456Z,48.04
2022-09-06T05:53:19.134Z,48.89
2022-09-06T05:56:28.160Z,49.52
2022-09-06T05:59:40.118Z,49.59
2022-09-06T06:02:52.098Z,49.63
2022-09-06T06:06:08.050Z,49.22
2022-09-06T06:09:17.521Z,51.67
2022-09-06T06:12:29.239Z,47.42
2022-09-06T06:15:34.582Z,47.04
2022-09-06T06:18:51.981Z,47.22
2022-09-06T06:22:04.962Z,47.11
2022-09-06T06:25:21.045Z,44.86
2022-09-06T06:28:39.708Z,46.54
2022-09-06T06:31:58.218Z,46.29
2022-09-06T06:35:05.061Z,46.13
2022-09-06T06:38:16.091Z,45.67
2022-09-06T06:41:25.184Z,45.53
2022-09-06T06:44:38.724Z,43.99
2022-09-06T06:47:49.092Z,48.32
2022-09-06T06:50:56.136Z,46.14
2022-09-06T06:54:08.124Z,45.39
2022-09-06T06:57:11.826Z,44.46
2022-09-06T07:00:27.646Z,43.74
2022-09-06T07:03:39.005Z,44.72
2022-09-06T07:10:40.448Z,47.08
2022-09-06T07:13:51.236Z,47.24
2022-09-06T07:17:00.325Z,44.92
2022-09-06T07:30:33.699Z,45.94
2022-09-06T07:33:55.157Z,47.36
2022-09-06T07:37:04.003Z,46.82
2022-09-06T07:40:18.113Z,43.93
2022-09-06T07:43:37.285Z,48.39
2022-09-06T07:46:46.375Z,44.83
2022-09-06T07:53:29.280Z,46.42
2022-09-06T07:56:42.464Z,48.19
2022-09-06T07:59:51.229Z,48.49
2022-09-06T08:02:56.158Z,48.92
2022-09-06T08:09:27.811Z,43.58
2022-09-06T08:12:36.227Z,47.01
2022-09-06T08:15:46.173Z,44.66
2022-09-06T08:18:59.208Z,44.67
2022-09-06T08:22:11.180Z,44.06
2022-09-06T08:25:25.191Z,46.19
2022-09-06T08:28:41.156Z,45.36
2022-09-06T08:32:00.122Z,45.19
2022-09-06T08:35:03.140Z,46.73
2022-09-06T08:38:15.182Z,45.54
2022-09-06T08:41:27.316Z,45.12
2022-09-06T08:48:02.849Z,44.83
2022-09-06T08:51:15.136Z,45.13
2022-09-06T08:54:32.343Z,45.84
2022-09-06T08:58:00.218Z,45.31
2022-09-06T09:01:21.869Z,46.40
2022-09-06T09:04:40.022Z,45.95
2022-09-06T09:08:01.259Z,46.31
2022-09-06T09:11:15.206Z,45.13
2022-09-06T09:14:31.692Z,45.63
2022-09-06T09:17:34.400Z,46.93
2022-09-06T09:20:43.249Z,47.63
2022-09-06T09:23:55.176Z,46.15
2022-09-06T09:27:16.392Z,47.39
2022-09-06T09:30:48.551Z,47.59
2022-09-06T09:34:09.034Z,46.49
2022-09-06T09:41:10.787Z,47.05
2022-09-06T09:44:27.151Z,46.32
2022-09-06T09:47:36.685Z,46.66
2022-09-06T09:50:49.155Z,47.22
2022-09-06T09:54:11.479Z,46.88
2022-09-06T09:57:27.790Z,48.07
2022-09-06T10:00:55.638Z,47.97
2022-09-06T10:04:45.695Z,48.29
2022-09-06T10:08:04.052Z,47.76
2022-09-06T10:11:16.710Z,48.20
2022-09-06T10:15:04.956Z,50.09
2022-09-06T10:18:39.342Z,50.18
2022-09-06T10:21:50.237Z,51.47
2022-09-06T10:25:39.211Z,51.69
2022-09-06T10:28:56.160Z,51.15
2022-09-06T10:32:30.395Z,51.62
2022-09-06T10:35:40.907Z,51.95
2022-09-06T10:39:08.892Z,50.73
2022-09-06T10:42:43.176Z,48.96
2022-09-06T10:45:56.050Z,50.07
2022-09-06T10:49:09.805Z,49.14
2022-09-06T10:52:26.270Z,49.27
2022-09-06T10:55:38.160Z,48.31
2022-09-06T11:06:32.780Z,48.86
2022-09-06T11:10:13.995Z,49.91
2022-09-06T11:13:38.572Z,49.87
2022-09-06T11:16:55.277Z,50.45
2022-09-06T11:20:19.854Z,50.05
2022-09-06T11:23:38.758Z,50.27
2022-09-06T11:27:13.522Z,50.66
2022-09-06T11:30:31.167Z,51.83
2022-09-06T11:33:55.064Z,52.08
2022-09-06T11:37:11.951Z,51.94
2022-09-06T11:40:31.259Z,52.55
2022-09-06T11:44:00.995Z,52.73
2022-09-06T11:47:11.229Z,52.22
2022-09-06T11:50:33.843Z,52.33
2022-09-06T11:54:00.942Z,52.92
2022-09-06T11:57:36.183Z,53.46
2022-09-06T12:00:42.887Z,52.60
2022-09-06T12:04:06.587Z,51.77
2022-09-06T12:07:13.944Z,52.57
2022-09-06T12:10:44.175Z,54.58
2022-09-06T12:13:56.045Z,56.13
2022-09-06T12:17:28.259Z,56.84
2022-09-06T12:20:59.273Z,56.74
2022-09-06T12:24:03.983Z,58.62
2022-09-06T12:27:37.626Z,57.39
2022-09-06T12:30:54.294Z,58.89
2022-09-06T12:34:13.554Z,59.36
2022-09-06T12:37:33.806Z,59.43
2022-09-06T12:40:43.201Z,59.36
2022-09-06T12:43:54.274Z,59.11
2022-09-06T12:47:21.140Z,60.77
2022-09-06T12:50:39.285Z,60.55
2022-09-06T12:53:41.177Z,60.04
2022-09-06T12:56:50.375Z,60.61
2022-09-06T12:59:58.092Z,60.65
2022-09-06T13:03:17.267Z,59.06
2022-09-06T13:06:31.014Z,59.29
2022-09-06T13:09:35.523Z,59.06
2022-09-06T13:12:49.146Z,58.99
2022-09-06T13:16:01.912Z,59.84
2022-09-06T13:19:46.290Z,60.13
2022-09-06T13:22:56.396Z,60.23
2022-09-06T13:26:06.310Z,60.38
2022-09-06T13:29:31.956Z,59.91
2022-09-06T13:32:42.268Z,60.37
2022-09-06T13:35:46.437Z,60.18
2022-09-06T13:39:01.276Z,60.60
2022-09-06T13:42:13.001Z,61.04
2022-09-06T13:45:44.308Z,62.72
2022-09-06T13:48:48.242Z,62.02
2022-09-06T13:51:59.977Z,62.70
2022-09-06T13:55:09.309Z,62.08
2022-09-06T13:58:12.862Z,63.94
2022-09-06T14:01:22.404Z,63.78
2022-09-06T14:04:31.518Z,64.28
2022-09-06T14:07:41.266Z,64.29
2022-09-06T14:10:50.259Z,64.45
2022-09-06T14:13:55.638Z,63.56
2022-09-06T14:17:06.176Z,64.12
2022-09-06T14:20:19.293Z,64.29
2022-09-06T14:23:26.056Z,63.88
2022-09-06T14:26:40.238Z,64.24
2022-09-06T14:29:43.572Z,63.63
2022-09-06T14:32:53.271Z,64.27
2022-09-06T14:35:59.953Z,63.85
2022-09-06T14:39:11.258Z,63.92
2022-09-06T14:42:17.329Z,63.56
2022-09-06T14:45:28.261Z,63.92
2022-09-06T14:48:42.137Z,64.17
2022-09-06T14:51:45.622Z,64.06
2022-09-06T14:54:55.295Z,64.76
2022-09-06T14:58:01.665Z,64.31
2022-09-06T15:01:13.031Z,64.73
2022-09-06T15:04:17.819Z,65.43
2022-09-06T15:07:28.506Z,64.15
2022-09-06T15:10:32.775Z,65.51
2022-09-06T15:13:45.187Z,64.32
2022-09-06T15:16:55.274Z,65.33
2022-09-06T15:20:07.197Z,66.24
2022-09-06T15:23:26.051Z,66.15
2022-09-06T15:26:37.192Z,65.63
2022-09-06T15:29:41.418Z,64.41
2022-09-06T15:33:00.106Z,65.33
2022-09-06T15:36:10.959Z,64.80
2022-09-06T15:39:22.194Z,62.55
2022-09-06T15:42:31.248Z,64.49
2022-09-06T15:45:43.283Z,64.83
2022-09-06T15:49:01.038Z,64.49
2022-09-06T15:52:17.259Z,64.21
2022-09-06T15:55:41.686Z,63.45
2022-09-06T15:58:51.284Z,63.88
2022-09-06T16:02:05.689Z,63.87
2022-09-06T16:05:17.454Z,64.83
2022-09-06T16:08:25.162Z,65.97
2022-09-06T16:11:36.244Z,66.68
2022-09-06T16:14:39.312Z,67.38
2022-09-06T16:17:50.256Z,65.92
2022-09-06T16:21:05.212Z,65.50
2022-09-06T16:24:20.298Z,65.22
2022-09-06T16:27:27.093Z,65.58
2022-09-06T16:30:36.978Z,66.49
2022-09-06T16:33:47.112Z,65.66
2022-09-06T16:36:58.163Z,66.62
2022-09-06T16:40:16.783Z,67.97
2022-09-06T16:43:27.091Z,68.52
2022-09-06T16:46:13.676Z,67.17
2022-09-06T16:49:09.241Z,65.74
2022-09-06T16:51:56.528Z,67.38
2022-09-06T16:54:47.992Z,67.78
2022-09-06T16:57:33.258Z,67.51
2022-09-06T17:00:43.619Z,66.12
2022-09-06T17:03:28.630Z,68.38
2022-09-06T17:06:20.244Z,67.97
2022-09-06T17:09:04.724Z,68.45
2022-09-06T17:11:57.249Z,69.10
2022-09-06T17:14:42.419Z,69.61
2022-09-06T17:17:32.253Z,68.67
2022-09-06T17:20:28.218Z,68.36
2022-09-06T17:23:11.153Z,69.03
2022-09-06T17:26:01.237Z,69.70
2022-09-06T17:28:52.255Z,68.92
2022-09-06T17:31:44.242Z,69.67
2022-09-06T17:34:26.637Z,69.64
2022-09-06T17:37:17.254Z,68.57
2022-09-06T17:39:59.612Z,69.05
2022-09-06T17:42:58.327Z,69.39
2022-09-06T17:45:43.838Z,68.79
2022-09-06T17:48:33.861Z,69.31
2022-09-06T17:51:35.020Z,69.32
2022-09-06T17:54:18.250Z,69.25
2022-09-06T17:57:08.254Z,69.29
2022-09-06T17:59:50.758Z,69.62
2022-09-06T18:02:43.211Z,68.63
2022-09-06T18:05:27.655Z,69.71
2022-09-06T18:08:17.247Z,70.34
2022-09-06T18:11:07.864Z,70.42
2022-09-06T18:14:06.979Z,70.66
2022-09-06T18:16:58.027Z,71.15
2022-09-06T18:19:45.385Z,71.11
2022-09-06T18:22:35.848Z,71.22
2022-09-06T18:25:19.779Z,70.63
2022-09-06T18:28:09.252Z,70.58
2022-09-06T18:31:01.027Z,69.97
2022-09-06T18:33:45.172Z,68.97
2022-09-06T18:36:35.286Z,71.10
2022-09-06T18:39:21.260Z,71.65
2022-09-06T18:42:12.614Z,71.75
2022-09-06T18:48:03.942Z,71.66
2022-09-06T18:50:59.839Z,71.62
2022-09-06T18:53:50.437Z,66.35
2022-09-06T18:56:41.900Z,68.28
2022-09-06T18:59:31.685Z,68.55
2022-09-06T19:02:22.121Z,69.00
2022-09-06T19:05:20.612Z,69.19
2022-09-06T19:08:05.150Z,69.23
2022-09-06T19:10:47.757Z,69.45
2022-09-06T19:13:38.894Z,69.23
2022-09-06T19:16:25.046Z,69.33
2022-09-06T19:19:22.299Z,69.63
2022-09-06T19:22:09.665Z,69.52
2022-09-06T19:24:56.763Z,69.38
2022-09-06T19:27:39.747Z,69.24
2022-09-06T19:30:29.272Z,69.34
2022-09-06T19:33:14.509Z,69.47
2022-09-06T19:36:11.569Z,69.83
2022-09-06T19:39:03.237Z,69.80
2022-09-06T19:41:56.313Z,69.75
2022-09-06T19:44:46.189Z,69.20
2022-09-06T19:47:35.237Z,69.32
2022-09-06T19:50:25.792Z,69.72
2022-09-06T19:53:15.497Z,69.71
2022-09-06T19:56:01.389Z,69.65
2022-09-06T19:58:52.266Z,69.62
2022-09-06T20:01:43.307Z,70.13
2022-09-06T20:04:31.232Z,69.40
2022-09-06T20:07:20.843Z,69.25
2022-09-06T20:10:05.148Z,69.05
2022-09-06T20:12:55.268Z,68.99
2022-09-06T20:15:46.239Z,69.30
2022-09-06T20:18:35.261Z,69.45
2022-09-06T20:21:26.176Z,69.07
2022-09-06T20:24:15.290Z,68.86
2022-09-06T20:27:04.865Z,68.59
2022-09-06T20:29:48.175Z,68.65
2022-09-06T20:32:36.584Z,67.82
2022-09-06T20:35:20.155Z,67.36
2022-09-06T20:38:10.513Z,67.30
2022-09-06T20:40:53.125Z,67.48
2022-09-06T20:43:50.147Z,67.73
2022-09-06T20:46:44.203Z,68.23
2022-09-06T20:49:34.674Z,68.11
2022-09-06T20:52:24.150Z,68.01
2022-09-06T20:55:13.225Z,68.21
2022-09-06T20:57:55.961Z,68.01
2022-09-06T21:00:48.098Z,67.64
2022-09-06T21:03:30.380Z,68.09
2022-09-06T21:06:20.052Z,67.81
2022-09-06T21:09:09.105Z,68.09
2022-09-06T21:12:00.173Z,68.28
2022-09-06T21:14:43.107Z,68.51
2022-09-06T21:17:32.191Z,67.90
2022-09-06T21:20:20.441Z,67.92
2022-09-06T21:23:03.175Z,68.68
2022-09-06T21:25:53.002Z,68.67
2022-09-06T21:28:45.057Z,68.57
2022-09-06T21:31:37.852Z,68.81
2022-09-06T21:34:21.069Z,68.63
2022-09-06T21:37:10.488Z,68.36
2022-09-06T21:39:53.203Z,68.58
2022-09-06T21:42:41.521Z,68.51
2022-09-06T21:45:30.357Z,67.91
2022-09-06T21:48:13.488Z,67.99
2022-09-06T21:51:02.111Z,68.26
2022-09-06T21:53:45.662Z,68.22
2022-09-06T21:56:35.128Z,68.33
2022-09-06T21:59:18.401Z,68.40
2022-09-06T22:02:08.023Z,67.86
2022-09-06T22:04:54.669Z,67.93
2022-09-06T22:07:47.031Z,67.79
2022-09-06T22:10:31.399Z,68.04
2022-09-06T22:13:20.030Z,68.03
2022-09-06T22:16:07.026Z,67.81
2022-09-06T22:18:58.021Z,67.30
2022-09-06T22:21:42.448Z,66.93
2022-09-06T22:24:31.016Z,67.18
2022-09-06T22:27:14.797Z,67.21
2022-09-06T22:30:04.012Z,67.46
2022-09-06T22:32:46.450Z,67.52
2022-09-06T22:35:35.129Z,67.33
2022-09-06T22:38:17.435Z,67.35
2022-09-06T22:41:06.876Z,67.04
2022-09-06T22:43:55.980Z,67.19
2022-09-06T22:46:52.185Z,67.69
2022-09-06T22:49:40.413Z,66.98
2022-09-06T22:52:23.163Z,66.90
2022-09-06T22:55:05.428Z,67.37
2022-09-06T22:57:55.097Z,67.36
2022-09-06T23:00:37.694Z,67.28
2022-09-06T23:03:27.227Z,66.92
2022-09-06T23:06:16.466Z,67.01
2022-09-06T23:08:59.115Z,67.05
2022-09-06T23:11:47.391Z,67.04
2022-09-06T23:14:29.992Z,67.25
2022-09-06T23:17:21.975Z,67.39
2022-09-06T23:20:05.120Z,67.45
2022-09-06T23:22:54.978Z,67.05
2022-09-06T23:25:37.406Z,67.66
2022-09-06T23:28:26.174Z,67.03
2022-09-06T23:31:13.485Z,67.08
2022-09-06T23:34:04.086Z,67.62
2022-09-06T23:36:53.004Z,67.48
2022-09-06T23:39:43.070Z,67.74
2022-09-06T23:42:26.380Z,67.54
2022-09-06T23:45:22.087Z,67.08
2022-09-06T23:48:11.489Z,67.36
2022-09-06T23:50:54.996Z,67.14
2022-09-06T23:53:44.082Z,67.82
2022-09-06T23:56:26.375Z,67.60
2022-09-06T23:59:15.109Z,67.24
